sensor_id;sensor_type;location;lat;lon;timestamp;P1;durP1;ratioP1;P2;durP2;ratioP2
35205;SDS011;46555;45.620;13.796;2022-07-22T00:01:15;32.00;;;23.35;;
35205;SDS011;46555;45.620;13.796;2022-07-22T00:03:41;32.05;;;22.25;;
35205;SDS011;46555;45.620;13.796;2022-07-22T00:06:07;35.90;;;23.90;;
35205;SDS011;46555;45.620;13.796;2022-07-22T00:08:33;29.27;;;24.85;;
35205;SDS011;46555;45.620;13.796;2022-07-22T00:10:58;38.17;;;26.40;;
35205;SDS011;46555;45.620;13.796;2022-07-22T00:13:27;35.40;;;27.30;;
35205;SDS011;46555;45.620;13.796;2022-07-22T00:15:53;35.13;;;27.92;;
35205;SDS011;46555;45.620;13.796;2022-07-22T00:18:19;31.92;;;27.30;;
35205;SDS011;46555;45.620;13.796;2022-07-22T00:20:44;39.90;;;24.50;;
35205;SDS011;46555;45.620;13.796;2022-07-22T00:23:10;29.88;;;24.38;;
35205;SDS011;46555;45.620;13.796;2022-07-22T00:25:36;34.35;;;25.58;;
35205;SDS011;46555;45.620;13.796;2022-07-22T00:28:02;30.15;;;26.35;;
35205;SDS011;46555;45.620;13.796;2022-07-22T00:30:28;35.28;;;25.95;;
35205;SDS011;46555;45.620;13.796;2022-07-22T00:32:53;34.95;;;27.40;;
35205;SDS011;46555;45.620;13.796;2022-07-22T00:35:19;32.92;;;27.52;;
35205;SDS011;46555;45.620;13.796;2022-07-22T00:37:45;36.08;;;27.48;;
35205;SDS011;46555;45.620;13.796;2022-07-22T00:40:10;32.83;;;27.45;;
35205;SDS011;46555;45.620;13.796;2022-07-22T00:42:36;35.70;;;27.27;;
35205;SDS011;46555;45.620;13.796;2022-07-22T00:45:02;37.03;;;27.92;;
35205;SDS011;46555;45.620;13.796;2022-07-22T00:47:28;33.05;;;25.73;;
35205;SDS011;46555;45.620;13.796;2022-07-22T00:49:54;35.50;;;26.42;;
35205;SDS011;46555;45.620;13.796;2022-07-22T00:52:20;34.63;;;27.55;;
35205;SDS011;46555;45.620;13.796;2022-07-22T00:54:47;30.13;;;24.55;;
35205;SDS011;46555;45.620;13.796;2022-07-22T00:57:12;32.75;;;25.92;;
35205;SDS011;46555;45.620;13.796;2022-07-22T00:59:38;39.88;;;27.00;;
35205;SDS011;46555;45.620;13.796;2022-07-22T01:02:04;35.88;;;25.90;;
35205;SDS011;46555;45.620;13.796;2022-07-22T01:04:30;29.58;;;24.33;;
35205;SDS011;46555;45.620;13.796;2022-07-22T01:06:56;33.40;;;23.88;;
35205;SDS011;46555;45.620;13.796;2022-07-22T01:09:22;30.70;;;23.85;;
35205;SDS011;46555;45.620;13.796;2022-07-22T01:11:47;28.25;;;24.15;;
35205;SDS011;46555;45.620;13.796;2022-07-22T01:14:13;35.72;;;24.30;;
35205;SDS011;46555;45.620;13.796;2022-07-22T01:16:39;31.08;;;24.58;;
35205;SDS011;46555;45.620;13.796;2022-07-22T01:19:05;31.85;;;24.67;;
35205;SDS011;46555;45.620;13.796;2022-07-22T01:21:31;35.80;;;24.20;;
35205;SDS011;46555;45.620;13.796;2022-07-22T01:23:57;33.45;;;23.85;;
35205;SDS011;46555;45.620;13.796;2022-07-22T01:26:23;26.42;;;23.40;;
35205;SDS011;46555;45.620;13.796;2022-07-22T01:28:49;31.80;;;23.88;;
35205;SDS011;46555;45.620;13.796;2022-07-22T01:31:15;26.25;;;22.65;;
35205;SDS011;46555;45.620;13.796;2022-07-22T01:33:41;29.73;;;22.70;;
35205;SDS011;46555;45.620;13.796;2022-07-22T01:36:07;25.63;;;21.55;;
35205;SDS011;46555;45.620;13.796;2022-07-22T01:38:33;30.05;;;21.58;;
35205;SDS011;46555;45.620;13.796;2022-07-22T01:40:59;30.77;;;22.70;;
35205;SDS011;46555;45.620;13.796;2022-07-22T01:43:25;24.52;;;20.92;;
35205;SDS011;46555;45.620;13.796;2022-07-22T01:45:51;29.52;;;21.20;;
35205;SDS011;46555;45.620;13.796;2022-07-22T01:48:18;29.42;;;21.65;;
35205;SDS011;46555;45.620;13.796;2022-07-22T01:50:45;25.17;;;21.42;;
35205;SDS011;46555;45.620;13.796;2022-07-22T01:53:11;28.52;;;20.52;;
35205;SDS011;46555;45.620;13.796;2022-07-22T01:55:37;25.23;;;20.77;;
35205;SDS011;46555;45.620;13.796;2022-07-22T01:58:03;28.30;;;20.92;;
35205;SDS011;46555;45.620;13.796;2022-07-22T02:00:30;26.65;;;20.60;;
35205;SDS011;46555;45.620;13.796;2022-07-22T02:02:56;25.02;;;20.33;;
35205;SDS011;46555;45.620;13.796;2022-07-22T02:05:22;26.42;;;20.38;;
35205;SDS011;46555;45.620;13.796;2022-07-22T02:07:49;29.95;;;21.08;;
35205;SDS011;46555;45.620;13.796;2022-07-22T02:10:14;25.15;;;21.02;;
35205;SDS011;46555;45.620;13.796;2022-07-22T02:12:40;28.00;;;20.45;;
35205;SDS011;46555;45.620;13.796;2022-07-22T02:15:06;27.13;;;20.98;;
35205;SDS011;46555;45.620;13.796;2022-07-22T02:17:33;27.23;;;21.38;;
35205;SDS011;46555;45.620;13.796;2022-07-22T02:20:00;22.17;;;19.88;;
35205;SDS011;46555;45.620;13.796;2022-07-22T02:22:27;23.48;;;20.50;;
35205;SDS011;46555;45.620;13.796;2022-07-22T02:24:53;24.15;;;20.38;;
35205;SDS011;46555;45.620;13.796;2022-07-22T02:27:18;32.03;;;21.75;;
35205;SDS011;46555;45.620;13.796;2022-07-22T02:29:44;27.02;;;20.88;;
35205;SDS011;46555;45.620;13.796;2022-07-22T02:32:10;24.75;;;20.98;;
35205;SDS011;46555;45.620;13.796;2022-07-22T02:34:35;25.95;;;20.70;;
35205;SDS011;46555;45.620;13.796;2022-07-22T02:37:01;26.48;;;21.05;;
35205;SDS011;46555;45.620;13.796;2022-07-22T02:39:27;28.38;;;20.52;;
35205;SDS011;46555;45.620;13.796;2022-07-22T02:41:53;25.38;;;20.08;;
35205;SDS011;46555;45.620;13.796;2022-07-22T02:44:18;22.88;;;19.25;;
35205;SDS011;46555;45.620;13.796;2022-07-22T02:46:45;23.33;;;17.02;;
35205;SDS011;46555;45.620;13.796;2022-07-22T02:49:10;21.15;;;17.17;;
35205;SDS011;46555;45.620;13.796;2022-07-22T02:51:39;23.27;;;20.02;;
35205;SDS011;46555;45.620;13.796;2022-07-22T02:54:05;24.58;;;19.55;;
35205;SDS011;46555;45.620;13.796;2022-07-22T02:56:31;24.73;;;20.48;;
35205;SDS011;46555;45.620;13.796;2022-07-22T02:58:57;25.05;;;17.48;;
35205;SDS011;46555;45.620;13.796;2022-07-22T03:01:22;23.90;;;19.10;;
35205;SDS011;46555;45.620;13.796;2022-07-22T03:03:48;19.48;;;17.27;;
35205;SDS011;46555;45.620;13.796;2022-07-22T03:06:14;20.30;;;15.85;;
35205;SDS011;46555;45.620;13.796;2022-07-22T03:08:40;20.40;;;16.40;;
35205;SDS011;46555;45.620;13.796;2022-07-22T03:11:05;18.80;;;14.40;;
35205;SDS011;46555;45.620;13.796;2022-07-22T03:13:31;17.17;;;14.05;;
35205;SDS011;46555;45.620;13.796;2022-07-22T03:15:57;21.33;;;12.43;;
35205;SDS011;46555;45.620;13.796;2022-07-22T03:18:23;18.45;;;12.70;;
35205;SDS011;46555;45.620;13.796;2022-07-22T03:20:51;20.70;;;13.27;;
35205;SDS011;46555;45.620;13.796;2022-07-22T03:23:17;19.42;;;12.93;;
35205;SDS011;46555;45.620;13.796;2022-07-22T03:25:43;18.92;;;13.55;;
35205;SDS011;46555;45.620;13.796;2022-07-22T03:28:08;19.05;;;13.23;;
35205;SDS011;46555;45.620;13.796;2022-07-22T03:30:34;18.50;;;14.35;;
35205;SDS011;46555;45.620;13.796;2022-07-22T03:33:00;17.95;;;15.25;;
35205;SDS011;46555;45.620;13.796;2022-07-22T03:35:25;17.85;;;14.43;;
35205;SDS011;46555;45.620;13.796;2022-07-22T03:37:51;27.48;;;19.38;;
35205;SDS011;46555;45.620;13.796;2022-07-22T03:40:18;22.52;;;17.58;;
35205;SDS011;46555;45.620;13.796;2022-07-22T03:42:44;22.20;;;16.13;;
35205;SDS011;46555;45.620;13.796;2022-07-22T03:45:10;25.25;;;18.52;;
35205;SDS011;46555;45.620;13.796;2022-07-22T03:47:36;22.60;;;16.48;;
35205;SDS011;46555;45.620;13.796;2022-07-22T03:50:02;18.17;;;16.02;;
35205;SDS011;46555;45.620;13.796;2022-07-22T03:52:28;20.75;;;15.85;;
35205;SDS011;46555;45.620;13.796;2022-07-22T03:54:57;16.70;;;14.95;;
35205;SDS011;46555;45.620;13.796;2022-07-22T03:57:23;28.55;;;16.38;;
35205;SDS011;46555;45.620;13.796;2022-07-22T03:59:49;23.23;;;17.70;;
35205;SDS011;46555;45.620;13.796;2022-07-22T04:02:14;22.73;;;16.60;;
35205;SDS011;46555;45.620;13.796;2022-07-22T04:04:40;16.38;;;12.95;;
35205;SDS011;46555;45.620;13.796;2022-07-22T04:07:05;13.07;;;11.63;;
35205;SDS011;46555;45.620;13.796;2022-07-22T04:09:31;14.57;;;11.18;;
35205;SDS011;46555;45.620;13.796;2022-07-22T04:11:57;16.05;;;12.25;;
35205;SDS011;46555;45.620;13.796;2022-07-22T04:14:23;13.90;;;11.43;;
35205;SDS011;46555;45.620;13.796;2022-07-22T04:16:49;14.13;;;11.88;;
35205;SDS011;46555;45.620;13.796;2022-07-22T04:19:15;18.17;;;11.02;;
35205;SDS011;46555;45.620;13.796;2022-07-22T04:21:40;15.60;;;10.73;;
35205;SDS011;46555;45.620;13.796;2022-07-22T04:24:06;14.93;;;10.63;;
35205;SDS011;46555;45.620;13.796;2022-07-22T04:26:32;14.15;;;10.52;;
35205;SDS011;46555;45.620;13.796;2022-07-22T04:28:59;12.50;;;9.68;;
35205;SDS011;46555;45.620;13.796;2022-07-22T04:31:24;15.98;;;9.68;;
35205;SDS011;46555;45.620;13.796;2022-07-22T04:33:50;14.20;;;9.98;;
35205;SDS011;46555;45.620;13.796;2022-07-22T04:36:16;13.77;;;11.20;;
35205;SDS011;46555;45.620;13.796;2022-07-22T04:38:41;16.05;;;10.93;;
35205;SDS011;46555;45.620;13.796;2022-07-22T04:41:07;13.75;;;10.45;;
35205;SDS011;46555;45.620;13.796;2022-07-22T04:43:33;14.48;;;11.07;;
35205;SDS011;46555;45.620;13.796;2022-07-22T04:45:59;14.05;;;9.88;;
35205;SDS011;46555;45.620;13.796;2022-07-22T04:48:24;15.75;;;10.13;;
35205;SDS011;46555;45.620;13.796;2022-07-22T04:50:50;14.70;;;10.30;;
35205;SDS011;46555;45.620;13.796;2022-07-22T04:53:16;16.20;;;10.05;;
35205;SDS011;46555;45.620;13.796;2022-07-22T04:55:44;13.68;;;10.15;;
35205;SDS011;46555;45.620;13.796;2022-07-22T04:58:10;13.88;;;9.45;;
35205;SDS011;46555;45.620;13.796;2022-07-22T05:00:36;13.70;;;8.93;;
35205;SDS011;46555;45.620;13.796;2022-07-22T05:03:01;10.38;;;9.18;;
35205;SDS011;46555;45.620;13.796;2022-07-22T05:05:27;25.65;;;13.45;;
35205;SDS011;46555;45.620;13.796;2022-07-22T05:07:53;15.95;;;11.90;;
35205;SDS011;46555;45.620;13.796;2022-07-22T05:10:19;15.32;;;11.90;;
35205;SDS011;46555;45.620;13.796;2022-07-22T05:12:44;13.75;;;10.25;;
35205;SDS011;46555;45.620;13.796;2022-07-22T05:15:10;15.70;;;11.60;;
35205;SDS011;46555;45.620;13.796;2022-07-22T05:17:36;17.50;;;12.68;;
35205;SDS011;46555;45.620;13.796;2022-07-22T05:20:02;17.77;;;13.07;;
35205;SDS011;46555;45.620;13.796;2022-07-22T05:22:29;18.55;;;11.52;;
35205;SDS011;46555;45.620;13.796;2022-07-22T05:24:55;17.83;;;8.73;;
35205;SDS011;46555;45.620;13.796;2022-07-22T05:27:20;16.10;;;11.27;;
35205;SDS011;46555;45.620;13.796;2022-07-22T05:29:46;10.65;;;9.25;;
35205;SDS011;46555;45.620;13.796;2022-07-22T05:32:12;15.57;;;9.73;;
35205;SDS011;46555;45.620;13.796;2022-07-22T05:34:38;14.95;;;9.18;;
35205;SDS011;46555;45.620;13.796;2022-07-22T05:37:04;20.80;;;13.20;;
35205;SDS011;46555;45.620;13.796;2022-07-22T05:39:29;11.60;;;7.20;;
35205;SDS011;46555;45.620;13.796;2022-07-22T05:41:55;9.00;;;6.82;;
35205;SDS011;46555;45.620;13.796;2022-07-22T05:44:21;11.68;;;6.85;;
35205;SDS011;46555;45.620;13.796;2022-07-22T05:46:46;16.88;;;10.25;;
35205;SDS011;46555;45.620;13.796;2022-07-22T05:49:12;25.33;;;13.50;;
35205;SDS011;46555;45.620;13.796;2022-07-22T05:51:38;16.23;;;9.75;;
35205;SDS011;46555;45.620;13.796;2022-07-22T05:54:03;14.45;;;9.60;;
35205;SDS011;46555;45.620;13.796;2022-07-22T05:56:29;11.98;;;7.75;;
35205;SDS011;46555;45.620;13.796;2022-07-22T05:58:55;11.63;;;7.30;;
35205;SDS011;46555;45.620;13.796;2022-07-22T06:01:21;11.13;;;8.15;;
35205;SDS011;46555;45.620;13.796;2022-07-22T06:03:47;15.90;;;9.13;;
35205;SDS011;46555;45.620;13.796;2022-07-22T06:06:13;11.95;;;7.28;;
35205;SDS011;46555;45.620;13.796;2022-07-22T06:08:39;8.38;;;6.72;;
35205;SDS011;46555;45.620;13.796;2022-07-22T06:11:05;9.43;;;7.10;;
35205;SDS011;46555;45.620;13.796;2022-07-22T06:13:31;11.48;;;6.90;;
35205;SDS011;46555;45.620;13.796;2022-07-22T06:15:58;14.25;;;8.10;;
35205;SDS011;46555;45.620;13.796;2022-07-22T06:18:24;21.63;;;8.95;;
35205;SDS011;46555;45.620;13.796;2022-07-22T06:20:53;18.58;;;8.27;;
35205;SDS011;46555;45.620;13.796;2022-07-22T06:23:18;12.07;;;5.03;;
35205;SDS011;46555;45.620;13.796;2022-07-22T06:25:44;14.20;;;5.38;;
35205;SDS011;46555;45.620;13.796;2022-07-22T06:28:10;14.05;;;5.38;;
35205;SDS011;46555;45.620;13.796;2022-07-22T06:30:36;10.68;;;4.88;;
35205;SDS011;46555;45.620;13.796;2022-07-22T06:33:04;22.05;;;5.45;;
35205;SDS011;46555;45.620;13.796;2022-07-22T06:35:29;21.00;;;4.80;;
35205;SDS011;46555;45.620;13.796;2022-07-22T06:37:55;13.93;;;4.80;;
35205;SDS011;46555;45.620;13.796;2022-07-22T06:40:21;11.75;;;4.60;;
35205;SDS011;46555;45.620;13.796;2022-07-22T06:42:49;9.27;;;5.05;;
35205;SDS011;46555;45.620;13.796;2022-07-22T06:45:16;11.65;;;4.57;;
35205;SDS011;46555;45.620;13.796;2022-07-22T06:47:42;6.63;;;4.68;;
35205;SDS011;46555;45.620;13.796;2022-07-22T06:50:08;7.45;;;4.47;;
35205;SDS011;46555;45.620;13.796;2022-07-22T06:52:34;12.50;;;4.72;;
35205;SDS011;46555;45.620;13.796;2022-07-22T06:55:04;8.30;;;4.32;;
35205;SDS011;46555;45.620;13.796;2022-07-22T06:57:30;6.45;;;4.20;;
35205;SDS011;46555;45.620;13.796;2022-07-22T06:59:56;6.43;;;4.18;;
35205;SDS011;46555;45.620;13.796;2022-07-22T07:02:21;6.25;;;3.90;;
35205;SDS011;46555;45.620;13.796;2022-07-22T07:04:47;7.50;;;3.75;;
35205;SDS011;46555;45.620;13.796;2022-07-22T07:07:13;8.00;;;4.30;;
35205;SDS011;46555;45.620;13.796;2022-07-22T07:09:39;7.45;;;3.80;;
35205;SDS011;46555;45.620;13.796;2022-07-22T07:12:04;5.05;;;3.95;;
35205;SDS011;46555;45.620;13.796;2022-07-22T07:14:31;5.70;;;3.58;;
35205;SDS011;46555;45.620;13.796;2022-07-22T07:16:57;6.75;;;3.78;;
35205;SDS011;46555;45.620;13.796;2022-07-22T07:19:22;4.18;;;3.65;;
35205;SDS011;46555;45.620;13.796;2022-07-22T07:21:48;7.80;;;4.35;;
35205;SDS011;46555;45.620;13.796;2022-07-22T07:24:14;5.45;;;3.20;;
35205;SDS011;46555;45.620;13.796;2022-07-22T07:26:42;3.80;;;3.40;;
35205;SDS011;46555;45.620;13.796;2022-07-22T07:29:08;8.35;;;3.67;;
35205;SDS011;46555;45.620;13.796;2022-07-22T07:31:33;8.02;;;3.78;;
35205;SDS011;46555;45.620;13.796;2022-07-22T07:33:59;6.90;;;3.17;;
35205;SDS011;46555;45.620;13.796;2022-07-22T07:36:25;4.28;;;3.45;;
35205;SDS011;46555;45.620;13.796;2022-07-22T07:38:51;5.85;;;3.63;;
35205;SDS011;46555;45.620;13.796;2022-07-22T07:41:17;4.57;;;3.30;;
35205;SDS011;46555;45.620;13.796;2022-07-22T07:43:43;11.32;;;3.28;;
35205;SDS011;46555;45.620;13.796;2022-07-22T07:46:08;3.42;;;3.13;;
35205;SDS011;46555;45.620;13.796;2022-07-22T07:48:34;6.43;;;3.53;;
35205;SDS011;46555;45.620;13.796;2022-07-22T07:51:00;3.95;;;3.45;;
35205;SDS011;46555;45.620;13.796;2022-07-22T07:53:26;5.32;;;3.35;;
35205;SDS011;46555;45.620;13.796;2022-07-22T07:55:52;5.68;;;3.50;;
35205;SDS011;46555;45.620;13.796;2022-07-22T07:58:18;10.40;;;3.78;;
35205;SDS011;46555;45.620;13.796;2022-07-22T08:00:46;8.23;;;3.72;;
35205;SDS011;46555;45.620;13.796;2022-07-22T08:03:12;9.50;;;3.58;;
35205;SDS011;46555;45.620;13.796;2022-07-22T08:05:38;8.38;;;3.55;;
35205;SDS011;46555;45.620;13.796;2022-07-22T08:08:04;7.53;;;3.60;;
35205;SDS011;46555;45.620;13.796;2022-07-22T08:10:30;9.05;;;3.42;;
35205;SDS011;46555;45.620;13.796;2022-07-22T08:12:56;14.90;;;4.22;;
35205;SDS011;46555;45.620;13.796;2022-07-22T08:15:23;36.17;;;22.42;;
35205;SDS011;46555;45.620;13.796;2022-07-22T08:17:50;24.23;;;16.25;;
35205;SDS011;46555;45.620;13.796;2022-07-22T08:20:17;20.48;;;13.48;;
35205;SDS011;46555;45.620;13.796;2022-07-22T08:22:43;38.60;;;22.63;;
35205;SDS011;46555;45.620;13.796;2022-07-22T08:25:09;43.28;;;30.67;;
35205;SDS011;46555;45.620;13.796;2022-07-22T08:27:35;52.53;;;32.08;;
35205;SDS011;46555;45.620;13.796;2022-07-22T08:30:00;38.67;;;31.25;;
35205;SDS011;46555;45.620;13.796;2022-07-22T08:32:29;51.63;;;34.03;;
35205;SDS011;46555;45.620;13.796;2022-07-22T08:34:55;43.70;;;33.40;;
35205;SDS011;46555;45.620;13.796;2022-07-22T08:37:21;40.80;;;33.17;;
35205;SDS011;46555;45.620;13.796;2022-07-22T08:39:47;43.65;;;34.08;;
35205;SDS011;46555;45.620;13.796;2022-07-22T08:42:12;44.45;;;34.40;;
35205;SDS011;46555;45.620;13.796;2022-07-22T08:44:39;50.55;;;36.42;;
35205;SDS011;46555;45.620;13.796;2022-07-22T08:47:04;48.00;;;37.78;;
35205;SDS011;46555;45.620;13.796;2022-07-22T08:49:30;43.30;;;35.28;;
35205;SDS011;46555;45.620;13.796;2022-07-22T08:51:56;44.92;;;33.53;;
35205;SDS011;46555;45.620;13.796;2022-07-22T08:54:22;39.78;;;30.95;;
35205;SDS011;46555;45.620;13.796;2022-07-22T08:56:51;44.67;;;31.05;;
35205;SDS011;46555;45.620;13.796;2022-07-22T08:59:20;39.75;;;29.55;;
35205;SDS011;46555;45.620;13.796;2022-07-22T09:07:29;39.08;;;26.92;;
35205;SDS011;46555;45.620;13.796;2022-07-22T09:09:57;31.40;;;24.17;;
35205;SDS011;46555;45.620;13.796;2022-07-22T09:12:24;36.00;;;24.13;;
35205;SDS011;46555;45.620;13.796;2022-07-22T09:14:53;33.13;;;23.50;;
35205;SDS011;46555;45.620;13.796;2022-07-22T09:19:57;36.78;;;21.33;;
35205;SDS011;46555;45.620;13.796;2022-07-22T09:28:17;32.53;;;24.15;;
35205;SDS011;46555;45.620;13.796;2022-07-22T09:30:49;29.38;;;22.33;;
35205;SDS011;46555;45.620;13.796;2022-07-22T09:33:19;36.60;;;22.25;;
35205;SDS011;46555;45.620;13.796;2022-07-22T09:35:46;28.50;;;20.23;;
35205;SDS011;46555;45.620;13.796;2022-07-22T09:38:13;28.17;;;17.55;;
35205;SDS011;46555;45.620;13.796;2022-07-22T09:40:43;21.15;;;16.20;;
35205;SDS011;46555;45.620;13.796;2022-07-22T09:43:14;20.38;;;15.05;;
35205;SDS011;46555;45.620;13.796;2022-07-22T09:45:55;21.50;;;14.90;;
35205;SDS011;46555;45.620;13.796;2022-07-22T09:48:22;18.55;;;12.95;;
35205;SDS011;46555;45.620;13.796;2022-07-22T09:50:49;17.98;;;12.43;;
35205;SDS011;46555;45.620;13.796;2022-07-22T09:53:16;24.50;;;15.65;;
35205;SDS011;46555;45.620;13.796;2022-07-22T09:55:43;22.30;;;16.60;;
35205;SDS011;46555;45.620;13.796;2022-07-22T09:58:09;24.52;;;17.38;;
35205;SDS011;46555;45.620;13.796;2022-07-22T10:00:37;30.92;;;21.58;;
35205;SDS011;46555;45.620;13.796;2022-07-22T10:03:10;30.63;;;24.73;;
35205;SDS011;46555;45.620;13.796;2022-07-22T10:05:41;29.30;;;22.30;;
35205;SDS011;46555;45.620;13.796;2022-07-22T10:08:10;26.48;;;21.10;;
35205;SDS011;46555;45.620;13.796;2022-07-22T10:10:37;29.30;;;20.92;;
35205;SDS011;46555;45.620;13.796;2022-07-22T10:13:04;25.35;;;21.02;;
35205;SDS011;46555;45.620;13.796;2022-07-22T10:15:32;27.65;;;20.58;;
35205;SDS011;46555;45.620;13.796;2022-07-22T10:18:02;24.55;;;19.77;;
35205;SDS011;46555;45.620;13.796;2022-07-22T10:20:34;23.52;;;18.85;;
35205;SDS011;46555;45.620;13.796;2022-07-22T10:23:02;25.45;;;17.55;;
35205;SDS011;46555;45.620;13.796;2022-07-22T10:25:32;20.92;;;16.83;;
35205;SDS011;46555;45.620;13.796;2022-07-22T10:28:24;23.33;;;17.02;;
35205;SDS011;46555;45.620;13.796;2022-07-22T10:33:41;17.40;;;15.57;;
35205;SDS011;46555;45.620;13.796;2022-07-22T10:36:08;13.50;;;12.20;;
35205;SDS011;46555;45.620;13.796;2022-07-22T10:38:35;15.95;;;12.82;;
35205;SDS011;46555;45.620;13.796;2022-07-22T10:41:02;13.27;;;11.65;;
35205;SDS011;46555;45.620;13.796;2022-07-22T10:46:07;15.98;;;11.95;;
35205;SDS011;46555;45.620;13.796;2022-07-22T10:51:13;16.30;;;11.18;;
35205;SDS011;46555;45.620;13.796;2022-07-22T10:53:44;15.65;;;11.43;;
35205;SDS011;46555;45.620;13.796;2022-07-22T10:56:20;17.95;;;12.00;;
35205;SDS011;46555;45.620;13.796;2022-07-22T11:01:41;15.02;;;10.52;;
35205;SDS011;46555;45.620;13.796;2022-07-22T11:04:19;15.20;;;10.38;;
35205;SDS011;46555;45.620;13.796;2022-07-22T11:06:48;15.52;;;11.77;;
35205;SDS011;46555;45.620;13.796;2022-07-22T11:09:19;21.15;;;11.10;;
35205;SDS011;46555;45.620;13.796;2022-07-22T11:11:55;14.90;;;12.05;;
35205;SDS011;46555;45.620;13.796;2022-07-22T11:16:58;16.75;;;11.80;;
35205;SDS011;46555;45.620;13.796;2022-07-22T11:19:36;22.95;;;16.27;;
35205;SDS011;46555;45.620;13.796;2022-07-22T11:24:32;21.90;;;18.88;;
35205;SDS011;46555;45.620;13.796;2022-07-22T11:26:59;29.73;;;20.88;;
35205;SDS011;46555;45.620;13.796;2022-07-22T11:29:30;24.88;;;20.98;;
35205;SDS011;46555;45.620;13.796;2022-07-22T11:32:01;26.65;;;23.58;;
35205;SDS011;46555;45.620;13.796;2022-07-22T11:34:31;38.47;;;25.48;;
35205;SDS011;46555;45.620;13.796;2022-07-22T11:36:57;35.30;;;26.73;;
35205;SDS011;46555;45.620;13.796;2022-07-22T11:39:24;37.10;;;28.42;;
35205;SDS011;46555;45.620;13.796;2022-07-22T11:41:56;42.47;;;29.45;;
35205;SDS011;46555;45.620;13.796;2022-07-22T11:44:25;29.83;;;25.00;;
35205;SDS011;46555;45.620;13.796;2022-07-22T11:46:52;31.17;;;24.00;;
35205;SDS011;46555;45.620;13.796;2022-07-22T11:49:23;27.48;;;21.58;;
35205;SDS011;46555;45.620;13.796;2022-07-22T11:51:50;40.17;;;24.02;;
35205;SDS011;46555;45.620;13.796;2022-07-22T11:54:16;25.52;;;18.63;;
35205;SDS011;46555;45.620;13.796;2022-07-22T11:56:42;44.38;;;17.65;;
35205;SDS011;46555;45.620;13.796;2022-07-22T11:59:11;27.05;;;16.05;;
35205;SDS011;46555;45.620;13.796;2022-07-22T12:01:39;17.77;;;13.00;;
35205;SDS011;46555;45.620;13.796;2022-07-22T12:04:06;25.75;;;15.30;;
35205;SDS011;46555;45.620;13.796;2022-07-22T12:06:34;16.67;;;13.50;;
35205;SDS011;46555;45.620;13.796;2022-07-22T12:09:13;23.55;;;13.15;;
35205;SDS011;46555;45.620;13.796;2022-07-22T12:11:42;21.70;;;14.07;;
35205;SDS011;46555;45.620;13.796;2022-07-22T12:14:10;21.52;;;13.43;;
35205;SDS011;46555;45.620;13.796;2022-07-22T12:16:39;22.20;;;14.20;;
35205;SDS011;46555;45.620;13.796;2022-07-22T12:19:06;20.27;;;15.07;;
35205;SDS011;46555;45.620;13.796;2022-07-22T12:21:53;18.42;;;13.68;;
35205;SDS011;46555;45.620;13.796;2022-07-22T12:27:08;18.10;;;14.55;;
35205;SDS011;46555;45.620;13.796;2022-07-22T12:34:38;23.38;;;13.27;;
35205;SDS011;46555;45.620;13.796;2022-07-22T12:39:51;20.05;;;12.32;;
35205;SDS011;46555;45.620;13.796;2022-07-22T12:42:20;69.85;;;16.02;;
35205;SDS011;46555;45.620;13.796;2022-07-22T12:45:00;12.95;;;11.10;;
35205;SDS011;46555;45.620;13.796;2022-07-22T12:47:44;13.73;;;11.13;;
35205;SDS011;46555;45.620;13.796;2022-07-22T12:50:34;27.75;;;10.70;;
35205;SDS011;46555;45.620;13.796;2022-07-22T12:53:05;15.98;;;10.48;;
35205;SDS011;46555;45.620;13.796;2022-07-22T12:58:05;14.75;;;10.77;;
35205;SDS011;46555;45.620;13.796;2022-07-22T13:00:36;11.45;;;9.73;;
35205;SDS011;46555;45.620;13.796;2022-07-22T13:03:06;14.35;;;9.30;;
35205;SDS011;46555;45.620;13.796;2022-07-22T13:05:32;14.20;;;10.07;;
35205;SDS011;46555;45.620;13.796;2022-07-22T13:07:59;14.48;;;9.75;;
35205;SDS011;46555;45.620;13.796;2022-07-22T13:10:25;16.33;;;10.13;;
35205;SDS011;46555;45.620;13.796;2022-07-22T13:12:52;17.10;;;10.32;;
35205;SDS011;46555;45.620;13.796;2022-07-22T13:15:18;14.40;;;10.70;;
35205;SDS011;46555;45.620;13.796;2022-07-22T13:17:45;40.90;;;14.13;;
35205;SDS011;46555;45.620;13.796;2022-07-22T13:20:11;45.72;;;11.43;;
35205;SDS011;46555;45.620;13.796;2022-07-22T13:22:41;51.80;;;12.30;;
35205;SDS011;46555;45.620;13.796;2022-07-22T13:25:08;34.70;;;10.85;;
35205;SDS011;46555;45.620;13.796;2022-07-22T13:27:37;88.78;;;13.52;;
35205;SDS011;46555;45.620;13.796;2022-07-22T13:30:03;15.25;;;9.10;;
35205;SDS011;46555;45.620;13.796;2022-07-22T13:32:29;94.05;;;13.70;;
35205;SDS011;46555;45.620;13.796;2022-07-22T13:34:55;17.95;;;8.77;;
35205;SDS011;46555;45.620;13.796;2022-07-22T13:37:21;46.55;;;10.73;;
35205;SDS011;46555;45.620;13.796;2022-07-22T13:39:47;43.60;;;10.63;;
35205;SDS011;46555;45.620;13.796;2022-07-22T13:42:13;12.65;;;8.23;;
35205;SDS011;46555;45.620;13.796;2022-07-22T13:44:45;17.90;;;8.18;;
35205;SDS011;46555;45.620;13.796;2022-07-22T13:47:11;14.10;;;8.23;;
35205;SDS011;46555;45.620;13.796;2022-07-22T13:49:37;26.08;;;9.10;;
35205;SDS011;46555;45.620;13.796;2022-07-22T13:52:03;14.52;;;7.45;;
35205;SDS011;46555;45.620;13.796;2022-07-22T13:54:30;10.18;;;6.30;;
35205;SDS011;46555;45.620;13.796;2022-07-22T13:56:56;11.88;;;6.70;;
35205;SDS011;46555;45.620;13.796;2022-07-22T13:59:23;7.80;;;5.60;;
35205;SDS011;46555;45.620;13.796;2022-07-22T14:01:49;9.50;;;5.72;;
35205;SDS011;46555;45.620;13.796;2022-07-22T14:04:15;13.10;;;7.20;;
35205;SDS011;46555;45.620;13.796;2022-07-22T14:06:41;7.93;;;7.00;;
35205;SDS011;46555;45.620;13.796;2022-07-22T14:09:07;8.10;;;5.55;;
35205;SDS011;46555;45.620;13.796;2022-07-22T14:11:35;12.98;;;7.78;;
35205;SDS011;46555;45.620;13.796;2022-07-22T14:14:01;26.67;;;9.60;;
35205;SDS011;46555;45.620;13.796;2022-07-22T14:16:27;17.98;;;10.98;;
35205;SDS011;46555;45.620;13.796;2022-07-22T14:18:58;13.38;;;10.27;;
35205;SDS011;46555;45.620;13.796;2022-07-22T14:21:32;15.23;;;10.30;;
35205;SDS011;46555;45.620;13.796;2022-07-22T14:23:59;13.05;;;9.10;;
35205;SDS011;46555;45.620;13.796;2022-07-22T14:26:26;13.75;;;9.38;;
35205;SDS011;46555;45.620;13.796;2022-07-22T14:28:51;26.73;;;8.65;;
35205;SDS011;46555;45.620;13.796;2022-07-22T14:31:17;9.27;;;6.70;;
35205;SDS011;46555;45.620;13.796;2022-07-22T14:33:44;12.00;;;4.95;;
35205;SDS011;46555;45.620;13.796;2022-07-22T14:36:11;16.85;;;5.13;;
35205;SDS011;46555;45.620;13.796;2022-07-22T14:38:36;8.48;;;5.13;;
35205;SDS011;46555;45.620;13.796;2022-07-22T14:41:02;11.07;;;5.45;;
35205;SDS011;46555;45.620;13.796;2022-07-22T14:43:29;6.75;;;4.88;;
35205;SDS011;46555;45.620;13.796;2022-07-22T14:45:57;15.88;;;5.60;;
35205;SDS011;46555;45.620;13.796;2022-07-22T14:48:23;7.63;;;5.30;;
35205;SDS011;46555;45.620;13.796;2022-07-22T14:50:49;10.80;;;5.47;;
35205;SDS011;46555;45.620;13.796;2022-07-22T14:53:14;11.18;;;6.00;;
35205;SDS011;46555;45.620;13.796;2022-07-22T14:55:42;43.97;;;8.07;;